Startpagina
METAR-TAF:

METAR-TAF

Vliegvelden :

Chengdu, China

Internationale luchthaven Chengdu Shuangliu

breedte: 30-40N, lengte: 104-01E, hoogte: 508 m

Actueel weer

Dit bericht is 27 minuten geleden gemaakt, om 18:00 UTC
Wind 6 kt uit het zuidwesten, variërend tussen het zuidzuidwesten en het westen
Temperatuur 9°C
Vochtigheid 87%
Druk 1021 hPa
Zicht 10 km of meer
Verspreide wolken op 4000 ft

METAR: ZUUU 231800Z 23003MPS 200V260 9999 SCT040 09/07 Q1021 NOSIG

Tijdstip: 02:27 (18:27 UTC)

Verwachting

Dit bericht is 3 uur en het 47 minuten geleden gemaakt, om 14:40 UTC
Verwachting geldig van 23 om 18 UTC tot 24 om 18 UTC
Wind 6 kt uit het zuidzuidwesten
Zicht: 5000 m
Verspreide wolken op 4000 ft
nevel

TAF: ZUUU 231440Z 2318/2418 20003MPS 5000 BR SCT040 TX17/2407Z TN05/2322Z

Waarnemingen en weersverwachtingen van meer dan 4000 vliegvelden (METAR en TAF).

De beschikbare stations zijn de gele en rode punten op de kaart.

Ga met uw muis naar het station om de naam te zien.

Klik dan om waarnemingen en weersverwachtingen te zien.

kaart wijzigen: klik op de groene knoppen met een zwart kruis om in te zoomen, op de groene knop met een streepje om uit te zoomen of op de groene pijlen voor aangrenzende kaarten.


METAR-TAF: